sensor_id;sensor_type;location;lat;lon;timestamp;P1;durP1;ratioP1;P2;durP2;ratioP2
31770;SDS011;18343;50.152;8.182;2023-05-10T00:00:53;3.30;;;0.35;;
31770;SDS011;18343;50.152;8.182;2023-05-10T00:03:38;0.22;;;0.22;;
31770;SDS011;18343;50.152;8.182;2023-05-10T00:06:22;0.25;;;0.25;;
31770;SDS011;18343;50.152;8.182;2023-05-10T00:09:08;0.20;;;0.20;;
31770;SDS011;18343;50.152;8.182;2023-05-10T00:11:53;0.60;;;0.30;;
31770;SDS011;18343;50.152;8.182;2023-05-10T00:14:37;0.10;;;0.10;;
31770;SDS011;18343;50.152;8.182;2023-05-10T00:17:22;0.30;;;0.30;;
31770;SDS011;18343;50.152;8.182;2023-05-10T00:20:07;3.03;;;0.20;;
31770;SDS011;18343;50.152;8.182;2023-05-10T00:22:53;1.95;;;0.20;;
31770;SDS011;18343;50.152;8.182;2023-05-10T00:25:39;0.70;;;0.20;;
31770;SDS011;18343;50.152;8.182;2023-05-10T00:28:24;0.50;;;0.50;;
31770;SDS011;18343;50.152;8.182;2023-05-10T00:31:10;0.20;;;0.20;;
31770;SDS011;18343;50.152;8.182;2023-05-10T00:33:55;0.30;;;0.20;;
31770;SDS011;18343;50.152;8.182;2023-05-10T00:36:39;0.80;;;0.32;;
31770;SDS011;18343;50.152;8.182;2023-05-10T00:39:24;4.18;;;0.55;;
31770;SDS011;18343;50.152;8.182;2023-05-10T00:42:10;2.20;;;0.28;;
31770;SDS011;18343;50.152;8.182;2023-05-10T00:44:55;3.10;;;0.32;;
31770;SDS011;18343;50.152;8.182;2023-05-10T00:47:39;2.65;;;0.35;;
31770;SDS011;18343;50.152;8.182;2023-05-10T00:50:24;1.70;;;0.80;;
31770;SDS011;18343;50.152;8.182;2023-05-10T00:53:09;0.32;;;0.32;;
31770;SDS011;18343;50.152;8.182;2023-05-10T00:55:54;0.32;;;0.30;;
31770;SDS011;18343;50.152;8.182;2023-05-10T00:58:41;1.05;;;0.40;;
31770;SDS011;18343;50.152;8.182;2023-05-10T01:01:26;0.20;;;0.20;;
31770;SDS011;18343;50.152;8.182;2023-05-10T01:04:12;2.22;;;0.63;;
31770;SDS011;18343;50.152;8.182;2023-05-10T01:06:57;2.15;;;0.50;;
31770;SDS011;18343;50.152;8.182;2023-05-10T01:09:42;2.55;;;0.30;;
31770;SDS011;18343;50.152;8.182;2023-05-10T01:12:27;3.05;;;0.40;;
31770;SDS011;18343;50.152;8.182;2023-05-10T01:15:13;0.75;;;0.40;;
31770;SDS011;18343;50.152;8.182;2023-05-10T01:17:59;2.10;;;0.30;;
31770;SDS011;18343;50.152;8.182;2023-05-10T01:20:45;0.30;;;0.30;;
31770;SDS011;18343;50.152;8.182;2023-05-10T01:27:35;1.48;;;0.35;;
31770;SDS011;18343;50.152;8.182;2023-05-10T01:31:21;0.80;;;0.38;;
31770;SDS011;18343;50.152;8.182;2023-05-10T01:34:31;6.22;;;0.50;;
31770;SDS011;18343;50.152;8.182;2023-05-10T01:37:26;0.50;;;0.50;;
31770;SDS011;18343;50.152;8.182;2023-05-10T01:40:22;1.98;;;0.40;;
31770;SDS011;18343;50.152;8.182;2023-05-10T01:43:15;4.53;;;0.40;;
31770;SDS011;18343;50.152;8.182;2023-05-10T01:46:07;3.25;;;0.40;;
31770;SDS011;18343;50.152;8.182;2023-05-10T01:48:57;1.48;;;0.52;;
31770;SDS011;18343;50.152;8.182;2023-05-10T01:51:47;0.70;;;0.40;;
31770;SDS011;18343;50.152;8.182;2023-05-10T01:54:35;0.60;;;0.50;;
31770;SDS011;18343;50.152;8.182;2023-05-10T01:57:25;2.75;;;0.60;;
31770;SDS011;18343;50.152;8.182;2023-05-10T02:00:14;0.40;;;0.40;;
31770;SDS011;18343;50.152;8.182;2023-05-10T02:03:00;0.57;;;0.57;;
31770;SDS011;18343;50.152;8.182;2023-05-10T02:05:48;0.50;;;0.30;;
31770;SDS011;18343;50.152;8.182;2023-05-10T02:08:36;3.42;;;0.43;;
31770;SDS011;18343;50.152;8.182;2023-05-10T02:11:23;2.60;;;0.57;;
31770;SDS011;18343;50.152;8.182;2023-05-10T02:14:12;3.15;;;0.40;;
31770;SDS011;18343;50.152;8.182;2023-05-10T02:16:57;0.50;;;0.50;;
31770;SDS011;18343;50.152;8.182;2023-05-10T02:19:43;1.30;;;0.50;;
31770;SDS011;18343;50.152;8.182;2023-05-10T02:22:30;5.25;;;0.65;;
31770;SDS011;18343;50.152;8.182;2023-05-10T02:25:18;0.63;;;0.60;;
31770;SDS011;18343;50.152;8.182;2023-05-10T02:28:05;0.70;;;0.68;;
31770;SDS011;18343;50.152;8.182;2023-05-10T02:30:51;1.58;;;1.10;;
31770;SDS011;18343;50.152;8.182;2023-05-10T02:33:38;0.82;;;0.68;;
31770;SDS011;18343;50.152;8.182;2023-05-10T02:36:25;4.40;;;0.82;;
31770;SDS011;18343;50.152;8.182;2023-05-10T02:39:11;1.05;;;0.80;;
31770;SDS011;18343;50.152;8.182;2023-05-10T02:41:59;2.28;;;0.70;;
31770;SDS011;18343;50.152;8.182;2023-05-10T02:44:47;2.35;;;0.80;;
31770;SDS011;18343;50.152;8.182;2023-05-10T02:47:34;3.90;;;1.27;;
31770;SDS011;18343;50.152;8.182;2023-05-10T02:50:19;1.05;;;0.80;;
31770;SDS011;18343;50.152;8.182;2023-05-10T02:53:06;1.10;;;0.93;;
31770;SDS011;18343;50.152;8.182;2023-05-10T02:56:00;2.15;;;0.90;;
31770;SDS011;18343;50.152;8.182;2023-05-10T02:58:56;0.95;;;0.80;;
31770;SDS011;18343;50.152;8.182;2023-05-10T03:01:41;1.58;;;0.90;;
31770;SDS011;18343;50.152;8.182;2023-05-10T03:04:26;3.80;;;1.00;;
31770;SDS011;18343;50.152;8.182;2023-05-10T03:07:11;2.97;;;0.90;;
31770;SDS011;18343;50.152;8.182;2023-05-10T03:09:55;2.15;;;1.05;;
31770;SDS011;18343;50.152;8.182;2023-05-10T03:12:47;1.20;;;1.10;;
31770;SDS011;18343;50.152;8.182;2023-05-10T03:15:48;2.25;;;1.42;;
31770;SDS011;18343;50.152;8.182;2023-05-10T03:18:42;1.30;;;1.10;;
31770;SDS011;18343;50.152;8.182;2023-05-10T03:21:32;0.93;;;0.93;;
31770;SDS011;18343;50.152;8.182;2023-05-10T03:24:20;1.38;;;1.00;;
31770;SDS011;18343;50.152;8.182;2023-05-10T03:27:07;1.98;;;1.10;;
31770;SDS011;18343;50.152;8.182;2023-05-10T03:29:52;1.83;;;1.27;;
31770;SDS011;18343;50.152;8.182;2023-05-10T03:32:40;3.78;;;1.40;;
31770;SDS011;18343;50.152;8.182;2023-05-10T03:35:25;2.40;;;1.17;;
31770;SDS011;18343;50.152;8.182;2023-05-10T03:38:10;2.53;;;1.30;;
31770;SDS011;18343;50.152;8.182;2023-05-10T03:40:55;2.85;;;1.42;;
31770;SDS011;18343;50.152;8.182;2023-05-10T03:43:40;3.17;;;1.85;;
31770;SDS011;18343;50.152;8.182;2023-05-10T03:46:24;4.20;;;1.58;;
31770;SDS011;18343;50.152;8.182;2023-05-10T03:49:10;2.20;;;1.42;;
31770;SDS011;18343;50.152;8.182;2023-05-10T03:51:55;2.08;;;1.45;;
31770;SDS011;18343;50.152;8.182;2023-05-10T03:54:39;3.83;;;1.70;;
31770;SDS011;18343;50.152;8.182;2023-05-10T03:57:24;5.15;;;1.90;;
31770;SDS011;18343;50.152;8.182;2023-05-10T04:00:10;2.28;;;1.83;;
31770;SDS011;18343;50.152;8.182;2023-05-10T04:02:55;5.53;;;2.20;;
31770;SDS011;18343;50.152;8.182;2023-05-10T04:05:42;4.93;;;2.03;;
31770;SDS011;18343;50.152;8.182;2023-05-10T04:08:26;3.10;;;2.35;;
31770;SDS011;18343;50.152;8.182;2023-05-10T04:11:11;7.97;;;2.30;;
31770;SDS011;18343;50.152;8.182;2023-05-10T04:13:56;8.90;;;1.92;;
31770;SDS011;18343;50.152;8.182;2023-05-10T04:16:40;2.50;;;1.90;;
31770;SDS011;18343;50.152;8.182;2023-05-10T04:19:28;5.35;;;2.17;;
31770;SDS011;18343;50.152;8.182;2023-05-10T04:22:14;2.47;;;1.98;;
31770;SDS011;18343;50.152;8.182;2023-05-10T04:24:59;3.33;;;2.22;;
31770;SDS011;18343;50.152;8.182;2023-05-10T04:27:44;4.85;;;2.60;;
31770;SDS011;18343;50.152;8.182;2023-05-10T04:30:28;5.20;;;2.25;;
31770;SDS011;18343;50.152;8.182;2023-05-10T04:33:13;3.03;;;2.50;;
31770;SDS011;18343;50.152;8.182;2023-05-10T04:35:59;4.75;;;2.17;;
31770;SDS011;18343;50.152;8.182;2023-05-10T04:38:45;4.70;;;2.88;;
31770;SDS011;18343;50.152;8.182;2023-05-10T04:41:30;3.45;;;2.30;;
31770;SDS011;18343;50.152;8.182;2023-05-10T04:44:15;6.32;;;2.38;;
31770;SDS011;18343;50.152;8.182;2023-05-10T04:47:00;3.10;;;2.35;;
31770;SDS011;18343;50.152;8.182;2023-05-10T04:49:45;7.85;;;2.58;;
31770;SDS011;18343;50.152;8.182;2023-05-10T04:52:29;6.90;;;2.97;;
31770;SDS011;18343;50.152;8.182;2023-05-10T04:55:15;4.63;;;2.40;;
31770;SDS011;18343;50.152;8.182;2023-05-10T04:58:01;4.25;;;2.50;;
31770;SDS011;18343;50.152;8.182;2023-05-10T05:00:46;3.08;;;2.22;;
31770;SDS011;18343;50.152;8.182;2023-05-10T05:03:30;3.63;;;2.50;;
31770;SDS011;18343;50.152;8.182;2023-05-10T05:06:15;3.20;;;2.78;;
31770;SDS011;18343;50.152;8.182;2023-05-10T05:09:00;5.45;;;2.72;;
31770;SDS011;18343;50.152;8.182;2023-05-10T05:11:47;3.42;;;2.55;;
31770;SDS011;18343;50.152;8.182;2023-05-10T05:14:31;4.30;;;2.80;;
31770;SDS011;18343;50.152;8.182;2023-05-10T05:17:16;4.43;;;2.70;;
31770;SDS011;18343;50.152;8.182;2023-05-10T05:20:01;3.50;;;2.67;;
31770;SDS011;18343;50.152;8.182;2023-05-10T05:22:46;3.97;;;2.65;;
31770;SDS011;18343;50.152;8.182;2023-05-10T05:25:30;4.60;;;2.58;;
31770;SDS011;18343;50.152;8.182;2023-05-10T05:28:16;5.70;;;2.72;;
31770;SDS011;18343;50.152;8.182;2023-05-10T05:31:01;8.38;;;2.63;;
31770;SDS011;18343;50.152;8.182;2023-05-10T05:33:46;6.28;;;2.80;;
31770;SDS011;18343;50.152;8.182;2023-05-10T05:36:30;7.20;;;2.63;;
31770;SDS011;18343;50.152;8.182;2023-05-10T05:39:17;3.80;;;2.50;;
31770;SDS011;18343;50.152;8.182;2023-05-10T05:42:02;7.35;;;3.05;;
31770;SDS011;18343;50.152;8.182;2023-05-10T05:44:48;6.75;;;2.67;;
31770;SDS011;18343;50.152;8.182;2023-05-10T05:47:33;4.18;;;2.38;;
31770;SDS011;18343;50.152;8.182;2023-05-10T05:50:17;6.63;;;3.38;;
31770;SDS011;18343;50.152;8.182;2023-05-10T05:53:03;4.72;;;2.88;;
31770;SDS011;18343;50.152;8.182;2023-05-10T05:55:51;5.72;;;2.88;;
31770;SDS011;18343;50.152;8.182;2023-05-10T05:58:38;3.67;;;2.90;;
31770;SDS011;18343;50.152;8.182;2023-05-10T06:01:24;6.55;;;2.92;;
31770;SDS011;18343;50.152;8.182;2023-05-10T06:04:09;6.57;;;2.97;;
31770;SDS011;18343;50.152;8.182;2023-05-10T06:06:53;3.28;;;2.88;;
31770;SDS011;18343;50.152;8.182;2023-05-10T06:09:38;4.93;;;3.17;;
31770;SDS011;18343;50.152;8.182;2023-05-10T06:12:23;5.75;;;2.72;;
31770;SDS011;18343;50.152;8.182;2023-05-10T06:15:09;8.02;;;3.20;;
31770;SDS011;18343;50.152;8.182;2023-05-10T06:17:56;3.65;;;2.50;;
31770;SDS011;18343;50.152;8.182;2023-05-10T06:20:41;6.72;;;2.47;;
31770;SDS011;18343;50.152;8.182;2023-05-10T06:23:27;4.30;;;2.30;;
31770;SDS011;18343;50.152;8.182;2023-05-10T06:26:12;3.45;;;2.00;;
31770;SDS011;18343;50.152;8.182;2023-05-10T06:28:57;5.80;;;2.65;;
31770;SDS011;18343;50.152;8.182;2023-05-10T06:31:42;6.82;;;2.40;;
31770;SDS011;18343;50.152;8.182;2023-05-10T06:34:27;4.53;;;2.45;;
31770;SDS011;18343;50.152;8.182;2023-05-10T06:37:12;7.43;;;2.80;;
31770;SDS011;18343;50.152;8.182;2023-05-10T06:39:58;5.95;;;2.72;;
31770;SDS011;18343;50.152;8.182;2023-05-10T06:42:42;4.15;;;2.50;;
31770;SDS011;18343;50.152;8.182;2023-05-10T06:45:27;6.90;;;2.65;;
31770;SDS011;18343;50.152;8.182;2023-05-10T06:48:11;4.93;;;1.92;;
31770;SDS011;18343;50.152;8.182;2023-05-10T06:50:57;9.70;;;2.35;;
31770;SDS011;18343;50.152;8.182;2023-05-10T06:53:42;4.30;;;2.03;;
31770;SDS011;18343;50.152;8.182;2023-05-10T06:56:26;5.85;;;2.10;;
31770;SDS011;18343;50.152;8.182;2023-05-10T06:59:11;4.97;;;2.17;;
31770;SDS011;18343;50.152;8.182;2023-05-10T07:01:56;5.88;;;2.38;;
31770;SDS011;18343;50.152;8.182;2023-05-10T07:04:41;3.83;;;2.15;;
31770;SDS011;18343;50.152;8.182;2023-05-10T07:07:26;4.03;;;2.38;;
31770;SDS011;18343;50.152;8.182;2023-05-10T07:10:11;7.68;;;2.70;;
31770;SDS011;18343;50.152;8.182;2023-05-10T07:12:56;6.85;;;2.22;;
31770;SDS011;18343;50.152;8.182;2023-05-10T07:15:41;4.47;;;3.00;;
31770;SDS011;18343;50.152;8.182;2023-05-10T07:18:29;4.55;;;2.20;;
31770;SDS011;18343;50.152;8.182;2023-05-10T07:21:14;3.58;;;2.20;;
31770;SDS011;18343;50.152;8.182;2023-05-10T07:23:59;7.55;;;2.42;;
31770;SDS011;18343;50.152;8.182;2023-05-10T07:26:44;3.88;;;2.40;;
31770;SDS011;18343;50.152;8.182;2023-05-10T07:29:28;3.28;;;2.53;;
31770;SDS011;18343;50.152;8.182;2023-05-10T07:32:13;8.93;;;2.42;;
31770;SDS011;18343;50.152;8.182;2023-05-10T07:34:58;5.85;;;2.55;;
31770;SDS011;18343;50.152;8.182;2023-05-10T07:37:43;6.63;;;2.90;;
31770;SDS011;18343;50.152;8.182;2023-05-10T07:40:29;5.70;;;2.85;;
31770;SDS011;18343;50.152;8.182;2023-05-10T07:43:13;6.95;;;2.65;;
31770;SDS011;18343;50.152;8.182;2023-05-10T07:45:58;4.38;;;2.45;;
31770;SDS011;18343;50.152;8.182;2023-05-10T07:48:43;7.03;;;2.83;;
31770;SDS011;18343;50.152;8.182;2023-05-10T07:51:27;5.68;;;2.63;;
31770;SDS011;18343;50.152;8.182;2023-05-10T07:54:14;4.60;;;2.22;;
31770;SDS011;18343;50.152;8.182;2023-05-10T07:57:00;4.65;;;2.42;;
31770;SDS011;18343;50.152;8.182;2023-05-10T07:59:44;3.42;;;2.35;;
31770;SDS011;18343;50.152;8.182;2023-05-10T08:02:29;8.52;;;2.58;;
31770;SDS011;18343;50.152;8.182;2023-05-10T08:05:14;4.47;;;2.38;;
31770;SDS011;18343;50.152;8.182;2023-05-10T08:07:59;6.22;;;1.98;;
31770;SDS011;18343;50.152;8.182;2023-05-10T08:10:43;5.13;;;2.03;;
31770;SDS011;18343;50.152;8.182;2023-05-10T08:13:29;2.38;;;1.92;;
31770;SDS011;18343;50.152;8.182;2023-05-10T08:16:14;3.53;;;1.52;;
31770;SDS011;18343;50.152;8.182;2023-05-10T08:18:58;5.50;;;1.98;;
31770;SDS011;18343;50.152;8.182;2023-05-10T08:21:43;3.33;;;2.00;;
31770;SDS011;18343;50.152;8.182;2023-05-10T08:24:27;2.33;;;1.98;;
31770;SDS011;18343;50.152;8.182;2023-05-10T08:27:12;5.15;;;2.22;;
31770;SDS011;18343;50.152;8.182;2023-05-10T08:29:58;4.22;;;2.08;;
31770;SDS011;18343;50.152;8.182;2023-05-10T08:32:43;2.30;;;1.50;;
31770;SDS011;18343;50.152;8.182;2023-05-10T08:35:27;5.55;;;1.80;;
31770;SDS011;18343;50.152;8.182;2023-05-10T08:38:12;8.85;;;1.98;;
31770;SDS011;18343;50.152;8.182;2023-05-10T08:40:57;3.10;;;1.75;;
31770;SDS011;18343;50.152;8.182;2023-05-10T08:43:42;7.25;;;1.90;;
31770;SDS011;18343;50.152;8.182;2023-05-10T08:46:29;3.45;;;1.80;;
31770;SDS011;18343;50.152;8.182;2023-05-10T08:49:17;5.47;;;2.33;;
31770;SDS011;18343;50.152;8.182;2023-05-10T08:52:04;3.72;;;2.17;;
31770;SDS011;18343;50.152;8.182;2023-05-10T08:54:50;4.10;;;1.83;;
31770;SDS011;18343;50.152;8.182;2023-05-10T08:57:36;3.03;;;2.05;;
31770;SDS011;18343;50.152;8.182;2023-05-10T09:00:22;3.03;;;2.00;;
31770;SDS011;18343;50.152;8.182;2023-05-10T09:03:10;6.20;;;2.25;;
31770;SDS011;18343;50.152;8.182;2023-05-10T09:05:55;3.20;;;1.95;;
31770;SDS011;18343;50.152;8.182;2023-05-10T09:08:40;7.15;;;2.20;;
31770;SDS011;18343;50.152;8.182;2023-05-10T09:11:26;4.45;;;2.15;;
31770;SDS011;18343;50.152;8.182;2023-05-10T09:14:11;4.10;;;2.13;;
31770;SDS011;18343;50.152;8.182;2023-05-10T09:16:57;3.78;;;2.13;;
31770;SDS011;18343;50.152;8.182;2023-05-10T09:19:43;2.25;;;1.42;;
31770;SDS011;18343;50.152;8.182;2023-05-10T09:22:31;1.85;;;1.10;;
31770;SDS011;18343;50.152;8.182;2023-05-10T09:25:16;1.27;;;1.17;;
31770;SDS011;18343;50.152;8.182;2023-05-10T09:28:01;4.65;;;0.90;;
31770;SDS011;18343;50.152;8.182;2023-05-10T09:30:52;3.70;;;1.00;;
31770;SDS011;18343;50.152;8.182;2023-05-10T09:33:43;0.77;;;0.75;;
31770;SDS011;18343;50.152;8.182;2023-05-10T09:36:32;5.90;;;0.90;;
31770;SDS011;18343;50.152;8.182;2023-05-10T09:39:17;1.38;;;0.80;;
31770;SDS011;18343;50.152;8.182;2023-05-10T09:42:02;2.63;;;0.90;;
31770;SDS011;18343;50.152;8.182;2023-05-10T09:44:48;2.67;;;1.00;;
31770;SDS011;18343;50.152;8.182;2023-05-10T09:47:34;4.65;;;0.90;;
31770;SDS011;18343;50.152;8.182;2023-05-10T09:50:19;0.60;;;0.50;;
31770;SDS011;18343;50.152;8.182;2023-05-10T09:53:05;1.30;;;0.70;;
31770;SDS011;18343;50.152;8.182;2023-05-10T09:55:51;2.67;;;0.70;;
31770;SDS011;18343;50.152;8.182;2023-05-10T09:58:36;0.63;;;0.63;;
31770;SDS011;18343;50.152;8.182;2023-05-10T10:01:21;1.30;;;0.70;;
31770;SDS011;18343;50.152;8.182;2023-05-10T10:04:10;1.70;;;0.77;;
31770;SDS011;18343;50.152;8.182;2023-05-10T10:06:58;1.02;;;0.65;;
31770;SDS011;18343;50.152;8.182;2023-05-10T10:09:54;3.38;;;0.65;;
31770;SDS011;18343;50.152;8.182;2023-05-10T10:12:40;2.65;;;0.80;;
31770;SDS011;18343;50.152;8.182;2023-05-10T10:15:26;0.88;;;0.60;;
31770;SDS011;18343;50.152;8.182;2023-05-10T10:18:12;3.00;;;0.60;;
31770;SDS011;18343;50.152;8.182;2023-05-10T10:20:57;1.05;;;0.60;;
31770;SDS011;18343;50.152;8.182;2023-05-10T10:23:42;2.97;;;0.70;;
31770;SDS011;18343;50.152;8.182;2023-05-10T10:26:29;4.18;;;0.60;;
31770;SDS011;18343;50.152;8.182;2023-05-10T10:29:18;0.73;;;0.50;;
31770;SDS011;18343;50.152;8.182;2023-05-10T10:32:12;0.52;;;0.45;;
31770;SDS011;18343;50.152;8.182;2023-05-10T10:35:11;3.80;;;0.80;;
31770;SDS011;18343;50.152;8.182;2023-05-10T10:37:55;7.13;;;0.98;;
31770;SDS011;18343;50.152;8.182;2023-05-10T10:40:42;2.42;;;0.40;;
31770;SDS011;18343;50.152;8.182;2023-05-10T10:43:29;3.20;;;0.73;;
31770;SDS011;18343;50.152;8.182;2023-05-10T10:46:14;1.23;;;0.47;;
31770;SDS011;18343;50.152;8.182;2023-05-10T10:49:08;0.30;;;0.30;;
31770;SDS011;18343;50.152;8.182;2023-05-10T10:54:59;2.88;;;0.40;;
31770;SDS011;18343;50.152;8.182;2023-05-10T10:57:47;1.92;;;0.40;;
31770;SDS011;18343;50.152;8.182;2023-05-10T11:00:34;2.88;;;0.40;;
31770;SDS011;18343;50.152;8.182;2023-05-10T11:03:20;0.43;;;0.40;;
31770;SDS011;18343;50.152;8.182;2023-05-10T11:06:07;0.50;;;0.50;;
31770;SDS011;18343;50.152;8.182;2023-05-10T11:08:51;2.95;;;0.57;;
31770;SDS011;18343;50.152;8.182;2023-05-10T11:11:36;1.60;;;0.40;;
31770;SDS011;18343;50.152;8.182;2023-05-10T11:14:34;9.18;;;0.68;;
31770;SDS011;18343;50.152;8.182;2023-05-10T11:17:24;1.10;;;0.57;;
31770;SDS011;18343;50.152;8.182;2023-05-10T11:20:13;0.73;;;0.40;;
31770;SDS011;18343;50.152;8.182;2023-05-10T11:23:10;2.15;;;0.52;;
31770;SDS011;18343;50.152;8.182;2023-05-10T11:25:56;1.75;;;0.50;;
31770;SDS011;18343;50.152;8.182;2023-05-10T11:28:41;3.28;;;0.40;;
31770;SDS011;18343;50.152;8.182;2023-05-10T11:31:27;0.63;;;0.40;;
31770;SDS011;18343;50.152;8.182;2023-05-10T11:34:23;0.73;;;0.50;;
31770;SDS011;18343;50.152;8.182;2023-05-10T11:37:09;0.40;;;0.40;;
31770;SDS011;18343;50.152;8.182;2023-05-10T11:39:54;0.40;;;0.40;;
31770;SDS011;18343;50.152;8.182;2023-05-10T11:42:39;0.95;;;0.40;;
31770;SDS011;18343;50.152;8.182;2023-05-10T11:45:23;0.80;;;0.47;;
31770;SDS011;18343;50.152;8.182;2023-05-10T11:48:08;1.13;;;0.50;;
31770;SDS011;18343;50.152;8.182;2023-05-10T11:50:54;0.47;;;0.30;;
31770;SDS011;18343;50.152;8.182;2023-05-10T11:53:39;1.15;;;0.40;;
31770;SDS011;18343;50.152;8.182;2023-05-10T11:56:24;0.95;;;0.77;;
31770;SDS011;18343;50.152;8.182;2023-05-10T11:59:08;1.52;;;0.63;;
31770;SDS011;18343;50.152;8.182;2023-05-10T12:01:53;3.35;;;0.70;;
31770;SDS011;18343;50.152;8.182;2023-05-10T12:04:38;0.75;;;0.40;;
31770;SDS011;18343;50.152;8.182;2023-05-10T12:07:24;4.72;;;0.50;;
31770;SDS011;18343;50.152;8.182;2023-05-10T12:10:10;4.30;;;0.50;;
31770;SDS011;18343;50.152;8.182;2023-05-10T12:12:57;1.42;;;0.95;;
31770;SDS011;18343;50.152;8.182;2023-05-10T12:15:41;2.50;;;0.40;;
31770;SDS011;18343;50.152;8.182;2023-05-10T12:18:27;1.30;;;0.40;;
31770;SDS011;18343;50.152;8.182;2023-05-10T12:21:12;0.98;;;0.40;;
31770;SDS011;18343;50.152;8.182;2023-05-10T12:24:01;4.53;;;0.50;;
31770;SDS011;18343;50.152;8.182;2023-05-10T12:26:46;0.30;;;0.30;;
31770;SDS011;18343;50.152;8.182;2023-05-10T12:29:31;0.47;;;0.40;;
31770;SDS011;18343;50.152;8.182;2023-05-10T12:32:16;1.98;;;0.50;;
31770;SDS011;18343;50.152;8.182;2023-05-10T12:35:00;3.85;;;0.50;;
31770;SDS011;18343;50.152;8.182;2023-05-10T12:37:47;0.82;;;0.30;;
31770;SDS011;18343;50.152;8.182;2023-05-10T12:40:34;0.80;;;0.32;;
31770;SDS011;18343;50.152;8.182;2023-05-10T12:43:19;0.57;;;0.35;;
31770;SDS011;18343;50.152;8.182;2023-05-10T12:46:04;3.05;;;0.63;;
31770;SDS011;18343;50.152;8.182;2023-05-10T12:48:50;2.45;;;0.60;;
31770;SDS011;18343;50.152;8.182;2023-05-10T12:51:35;4.15;;;0.57;;
31770;SDS011;18343;50.152;8.182;2023-05-10T12:54:19;0.30;;;0.30;;
31770;SDS011;18343;50.152;8.182;2023-05-10T12:57:05;2.58;;;0.43;;
31770;SDS011;18343;50.152;8.182;2023-05-10T12:59:50;2.72;;;0.40;;
31770;SDS011;18343;50.152;8.182;2023-05-10T13:02:35;3.65;;;0.60;;
31770;SDS011;18343;50.152;8.182;2023-05-10T13:05:23;1.02;;;0.60;;
31770;SDS011;18343;50.152;8.182;2023-05-10T13:08:07;0.63;;;0.50;;
31770;SDS011;18343;50.152;8.182;2023-05-10T13:10:51;2.13;;;0.80;;
31770;SDS011;18343;50.152;8.182;2023-05-10T13:13:38;3.40;;;0.60;;
31770;SDS011;18343;50.152;8.182;2023-05-10T13:16:22;3.83;;;0.77;;
31770;SDS011;18343;50.152;8.182;2023-05-10T13:19:08;3.00;;;0.55;;
31770;SDS011;18343;50.152;8.182;2023-05-10T13:21:54;0.95;;;0.40;;
31770;SDS011;18343;50.152;8.182;2023-05-10T13:24:38;1.85;;;0.40;;
31770;SDS011;18343;50.152;8.182;2023-05-10T13:27:23;5.28;;;0.40;;
31770;SDS011;18343;50.152;8.182;2023-05-10T13:30:10;2.90;;;0.50;;
31770;SDS011;18343;50.152;8.182;2023-05-10T13:32:56;0.50;;;0.40;;
31770;SDS011;18343;50.152;8.182;2023-05-10T13:35:43;4.20;;;0.40;;
31770;SDS011;18343;50.152;8.182;2023-05-10T13:38:28;0.50;;;0.50;;
31770;SDS011;18343;50.152;8.182;2023-05-10T13:41:13;0.45;;;0.40;;
31770;SDS011;18343;50.152;8.182;2023-05-10T13:43:57;2.88;;;0.50;;
31770;SDS011;18343;50.152;8.182;2023-05-10T13:46:43;1.00;;;0.50;;
31770;SDS011;18343;50.152;8.182;2023-05-10T13:49:28;0.63;;;0.40;;
31770;SDS011;18343;50.152;8.182;2023-05-10T13:52:13;1.15;;;0.68;;
31770;SDS011;18343;50.152;8.182;2023-05-10T13:54:57;1.48;;;0.57;;
31770;SDS011;18343;50.152;8.182;2023-05-10T13:57:42;2.15;;;0.65;;
31770;SDS011;18343;50.152;8.182;2023-05-10T14:00:26;1.10;;;0.45;;
31770;SDS011;18343;50.152;8.182;2023-05-10T14:03:12;0.40;;;0.40;;
31770;SDS011;18343;50.152;8.182;2023-05-10T14:05:58;1.20;;;0.50;;
31770;SDS011;18343;50.152;8.182;2023-05-10T14:08:43;2.75;;;0.50;;
31770;SDS011;18343;50.152;8.182;2023-05-10T14:11:27;1.60;;;0.68;;
31770;SDS011;18343;50.152;8.182;2023-05-10T14:14:12;2.45;;;0.70;;
31770;SDS011;18343;50.152;8.182;2023-05-10T14:16:57;1.23;;;0.52;;
31770;SDS011;18343;50.152;8.182;2023-05-10T14:19:43;6.63;;;0.60;;
31770;SDS011;18343;50.152;8.182;2023-05-10T14:22:28;1.15;;;0.70;;
31770;SDS011;18343;50.152;8.182;2023-05-10T14:25:12;0.73;;;0.57;;
31770;SDS011;18343;50.152;8.182;2023-05-10T14:27:57;3.50;;;0.68;;
31770;SDS011;18343;50.152;8.182;2023-05-10T14:30:42;4.18;;;0.82;;
31770;SDS011;18343;50.152;8.182;2023-05-10T14:33:46;0.73;;;0.55;;
31770;SDS011;18343;50.152;8.182;2023-05-10T14:36:32;2.75;;;0.65;;
31770;SDS011;18343;50.152;8.182;2023-05-10T14:39:17;1.00;;;0.60;;
31770;SDS011;18343;50.152;8.182;2023-05-10T14:42:01;1.85;;;0.65;;
31770;SDS011;18343;50.152;8.182;2023-05-10T14:44:47;0.70;;;0.50;;
31770;SDS011;18343;50.152;8.182;2023-05-10T14:47:31;0.57;;;0.55;;
31770;SDS011;18343;50.152;8.182;2023-05-10T14:50:16;1.27;;;1.00;;
31770;SDS011;18343;50.152;8.182;2023-05-10T14:53:02;2.25;;;0.73;;
31770;SDS011;18343;50.152;8.182;2023-05-10T14:55:47;0.75;;;0.60;;
31770;SDS011;18343;50.152;8.182;2023-05-10T14:58:31;4.15;;;0.60;;
31770;SDS011;18343;50.152;8.182;2023-05-10T15:01:16;8.05;;;0.65;;
31770;SDS011;18343;50.152;8.182;2023-05-10T15:04:01;0.82;;;0.65;;
31770;SDS011;18343;50.152;8.182;2023-05-10T15:06:46;1.45;;;0.98;;
31770;SDS011;18343;50.152;8.182;2023-05-10T15:09:32;1.90;;;0.80;;
31770;SDS011;18343;50.152;8.182;2023-05-10T15:12:17;1.00;;;0.75;;
31770;SDS011;18343;50.152;8.182;2023-05-10T15:15:01;1.80;;;0.60;;
31770;SDS011;18343;50.152;8.182;2023-05-10T15:17:47;2.70;;;0.93;;
31770;SDS011;18343;50.152;8.182;2023-05-10T15:20:32;1.42;;;0.80;;
31770;SDS011;18343;50.152;8.182;2023-05-10T15:23:17;2.17;;;0.60;;
31770;SDS011;18343;50.152;8.182;2023-05-10T15:26:03;1.77;;;1.13;;
31770;SDS011;18343;50.152;8.182;2023-05-10T15:28:47;6.40;;;1.25;;
31770;SDS011;18343;50.152;8.182;2023-05-10T15:31:32;1.55;;;0.80;;
31770;SDS011;18343;50.152;8.182;2023-05-10T15:34:16;4.10;;;0.90;;
31770;SDS011;18343;50.152;8.182;2023-05-10T15:37:01;1.20;;;0.90;;
31770;SDS011;18343;50.152;8.182;2023-05-10T15:39:46;1.48;;;1.02;;
31770;SDS011;18343;50.152;8.182;2023-05-10T15:42:32;4.68;;;1.20;;
31770;SDS011;18343;50.152;8.182;2023-05-10T15:45:17;1.65;;;0.90;;
31770;SDS011;18343;50.152;8.182;2023-05-10T15:48:02;2.05;;;0.80;;
31770;SDS011;18343;50.152;8.182;2023-05-10T15:50:47;1.60;;;0.80;;
31770;SDS011;18343;50.152;8.182;2023-05-10T15:53:34;3.75;;;1.38;;
31770;SDS011;18343;50.152;8.182;2023-05-10T15:56:19;2.55;;;1.20;;
31770;SDS011;18343;50.152;8.182;2023-05-10T15:59:04;2.83;;;1.00;;
31770;SDS011;18343;50.152;8.182;2023-05-10T16:01:50;1.80;;;0.85;;
31770;SDS011;18343;50.152;8.182;2023-05-10T16:04:36;5.47;;;0.90;;
31770;SDS011;18343;50.152;8.182;2023-05-10T16:07:21;3.35;;;0.95;;
31770;SDS011;18343;50.152;8.182;2023-05-10T16:10:07;3.40;;;0.80;;
31770;SDS011;18343;50.152;8.182;2023-05-10T16:12:54;5.90;;;1.02;;
31770;SDS011;18343;50.152;8.182;2023-05-10T16:15:41;1.60;;;0.90;;
31770;SDS011;18343;50.152;8.182;2023-05-10T16:18:25;4.97;;;1.33;;
31770;SDS011;18343;50.152;8.182;2023-05-10T16:21:11;7.28;;;0.95;;
31770;SDS011;18343;50.152;8.182;2023-05-10T16:23:55;4.07;;;1.05;;
31770;SDS011;18343;50.152;8.182;2023-05-10T16:26:40;2.25;;;0.80;;
31770;SDS011;18343;50.152;8.182;2023-05-10T16:29:24;1.27;;;0.85;;
31770;SDS011;18343;50.152;8.182;2023-05-10T16:32:12;1.30;;;0.90;;
31770;SDS011;18343;50.152;8.182;2023-05-10T16:34:57;3.78;;;1.23;;
31770;SDS011;18343;50.152;8.182;2023-05-10T16:37:42;1.58;;;1.08;;
31770;SDS011;18343;50.152;8.182;2023-05-10T16:40:26;2.15;;;1.20;;
31770;SDS011;18343;50.152;8.182;2023-05-10T16:43:13;1.10;;;0.80;;
31770;SDS011;18343;50.152;8.182;2023-05-10T16:45:59;2.17;;;0.88;;
31770;SDS011;18343;50.152;8.182;2023-05-10T16:48:45;4.40;;;1.35;;